< < Back
Terminal Aerodrome Forecast


Current Version              Previous Versions:   1  2  3  4  5  6  7  8  9  

Terminal Aerodrome Forecast

327
FTUS42 KGSP 251120
TAFAND
TAF
KAND 251120Z 2512/2612 00000KT P6SM SCT070
      TEMPO 2512/2513 1SM BR OVC001
     FM251300 VRB03KT P6SM SCT250
     FM251800 14004KT P6SM SCT060=

Latest METAR

965
SAUS70 KWBC 260300 RRC
MTRAND
METAR KAND 260256Z AUTO 00000KT 10SM CLR 26/23 A3012 RMK AO2 SLP188
T02610228 53010


USA.gov is the U.S. government's official web portal to all federal, state and local government web resources and services.